sensor_id;sensor_type;location;lat;lon;timestamp;P1;durP1;ratioP1;P2;durP2;ratioP2
6105;SDS011;3083;51.508;7.966;2022-07-31T00:01:46;8.13;;;4.57;;
6105;SDS011;3083;51.508;7.966;2022-07-31T00:04:14;8.57;;;4.30;;
6105;SDS011;3083;51.508;7.966;2022-07-31T00:06:41;13.03;;;5.30;;
6105;SDS011;3083;51.508;7.966;2022-07-31T00:09:08;7.80;;;5.00;;
6105;SDS011;3083;51.508;7.966;2022-07-31T00:11:35;11.73;;;4.70;;
6105;SDS011;3083;51.508;7.966;2022-07-31T00:14:03;8.43;;;4.93;;
6105;SDS011;3083;51.508;7.966;2022-07-31T00:16:30;7.47;;;5.23;;
6105;SDS011;3083;51.508;7.966;2022-07-31T00:18:57;8.30;;;4.23;;
6105;SDS011;3083;51.508;7.966;2022-07-31T00:21:25;7.87;;;5.10;;
6105;SDS011;3083;51.508;7.966;2022-07-31T00:23:52;9.20;;;4.80;;
6105;SDS011;3083;51.508;7.966;2022-07-31T00:26:19;8.13;;;5.03;;
6105;SDS011;3083;51.508;7.966;2022-07-31T00:28:47;9.27;;;4.90;;
6105;SDS011;3083;51.508;7.966;2022-07-31T00:31:14;8.87;;;5.30;;
6105;SDS011;3083;51.508;7.966;2022-07-31T00:33:42;10.60;;;4.80;;
6105;SDS011;3083;51.508;7.966;2022-07-31T00:36:09;6.40;;;4.53;;
6105;SDS011;3083;51.508;7.966;2022-07-31T00:38:37;9.10;;;4.30;;
6105;SDS011;3083;51.508;7.966;2022-07-31T00:41:04;7.20;;;4.80;;
6105;SDS011;3083;51.508;7.966;2022-07-31T00:43:32;8.93;;;4.73;;
6105;SDS011;3083;51.508;7.966;2022-07-31T00:45:59;6.00;;;4.13;;
6105;SDS011;3083;51.508;7.966;2022-07-31T00:48:26;5.17;;;4.00;;
6105;SDS011;3083;51.508;7.966;2022-07-31T00:50:53;7.20;;;4.50;;
6105;SDS011;3083;51.508;7.966;2022-07-31T00:53:21;7.03;;;4.67;;
6105;SDS011;3083;51.508;7.966;2022-07-31T00:55:49;6.03;;;4.57;;
6105;SDS011;3083;51.508;7.966;2022-07-31T00:58:16;7.40;;;4.40;;
6105;SDS011;3083;51.508;7.966;2022-07-31T01:00:43;6.13;;;4.30;;
6105;SDS011;3083;51.508;7.966;2022-07-31T01:03:10;6.20;;;4.77;;
6105;SDS011;3083;51.508;7.966;2022-07-31T01:05:38;9.97;;;4.73;;
6105;SDS011;3083;51.508;7.966;2022-07-31T01:08:05;6.20;;;4.60;;
6105;SDS011;3083;51.508;7.966;2022-07-31T01:10:35;9.87;;;5.67;;
6105;SDS011;3083;51.508;7.966;2022-07-31T01:13:12;7.70;;;4.97;;
6105;SDS011;3083;51.508;7.966;2022-07-31T01:15:45;9.57;;;5.63;;
6105;SDS011;3083;51.508;7.966;2022-07-31T01:18:13;7.70;;;5.23;;
6105;SDS011;3083;51.508;7.966;2022-07-31T01:20:42;9.10;;;5.50;;
6105;SDS011;3083;51.508;7.966;2022-07-31T01:23:16;14.83;;;6.00;;
6105;SDS011;3083;51.508;7.966;2022-07-31T01:26:05;12.83;;;5.90;;
6105;SDS011;3083;51.508;7.966;2022-07-31T01:28:52;7.43;;;5.47;;
6105;SDS011;3083;51.508;7.966;2022-07-31T01:31:26;8.53;;;6.30;;
6105;SDS011;3083;51.508;7.966;2022-07-31T01:34:01;7.43;;;5.70;;
6105;SDS011;3083;51.508;7.966;2022-07-31T01:36:32;8.00;;;5.87;;
6105;SDS011;3083;51.508;7.966;2022-07-31T01:39:02;8.60;;;5.90;;
6105;SDS011;3083;51.508;7.966;2022-07-31T01:41:31;7.87;;;5.90;;
6105;SDS011;3083;51.508;7.966;2022-07-31T01:44:03;8.93;;;5.97;;
6105;SDS011;3083;51.508;7.966;2022-07-31T01:46:32;8.77;;;5.93;;
6105;SDS011;3083;51.508;7.966;2022-07-31T01:49:00;8.30;;;5.30;;
6105;SDS011;3083;51.508;7.966;2022-07-31T01:51:28;10.00;;;5.73;;
6105;SDS011;3083;51.508;7.966;2022-07-31T01:53:56;8.50;;;5.40;;
6105;SDS011;3083;51.508;7.966;2022-07-31T01:56:27;9.80;;;5.53;;
6105;SDS011;3083;51.508;7.966;2022-07-31T01:58:57;9.93;;;5.43;;
6105;SDS011;3083;51.508;7.966;2022-07-31T02:01:27;7.10;;;5.57;;
6105;SDS011;3083;51.508;7.966;2022-07-31T02:03:56;8.07;;;5.83;;
6105;SDS011;3083;51.508;7.966;2022-07-31T02:06:24;12.47;;;6.50;;
6105;SDS011;3083;51.508;7.966;2022-07-31T02:08:52;9.50;;;5.77;;
6105;SDS011;3083;51.508;7.966;2022-07-31T02:11:20;8.53;;;5.73;;
6105;SDS011;3083;51.508;7.966;2022-07-31T02:13:48;7.87;;;5.80;;
6105;SDS011;3083;51.508;7.966;2022-07-31T02:16:17;8.57;;;6.20;;
6105;SDS011;3083;51.508;7.966;2022-07-31T02:18:47;7.67;;;5.60;;
6105;SDS011;3083;51.508;7.966;2022-07-31T02:21:17;12.43;;;6.53;;
6105;SDS011;3083;51.508;7.966;2022-07-31T02:23:45;9.83;;;6.17;;
6105;SDS011;3083;51.508;7.966;2022-07-31T02:26:12;12.03;;;6.80;;
6105;SDS011;3083;51.508;7.966;2022-07-31T02:28:42;8.83;;;5.80;;
6105;SDS011;3083;51.508;7.966;2022-07-31T02:31:11;7.40;;;5.77;;
6105;SDS011;3083;51.508;7.966;2022-07-31T02:33:41;11.40;;;6.10;;
6105;SDS011;3083;51.508;7.966;2022-07-31T02:36:12;11.83;;;6.13;;
6105;SDS011;3083;51.508;7.966;2022-07-31T02:38:42;15.43;;;6.27;;
6105;SDS011;3083;51.508;7.966;2022-07-31T02:41:10;8.83;;;6.20;;
6105;SDS011;3083;51.508;7.966;2022-07-31T02:43:38;9.93;;;6.10;;
6105;SDS011;3083;51.508;7.966;2022-07-31T02:46:05;7.93;;;5.73;;
6105;SDS011;3083;51.508;7.966;2022-07-31T02:48:34;8.97;;;6.20;;
6105;SDS011;3083;51.508;7.966;2022-07-31T02:51:02;7.90;;;6.00;;
6105;SDS011;3083;51.508;7.966;2022-07-31T02:53:31;7.40;;;5.60;;
6105;SDS011;3083;51.508;7.966;2022-07-31T02:55:59;11.30;;;6.10;;
6105;SDS011;3083;51.508;7.966;2022-07-31T02:58:28;8.30;;;6.07;;
6105;SDS011;3083;51.508;7.966;2022-07-31T03:00:58;9.40;;;6.00;;
6105;SDS011;3083;51.508;7.966;2022-07-31T03:03:26;11.53;;;5.50;;
6105;SDS011;3083;51.508;7.966;2022-07-31T03:05:53;9.30;;;6.00;;
6105;SDS011;3083;51.508;7.966;2022-07-31T03:08:21;12.00;;;6.60;;
6105;SDS011;3083;51.508;7.966;2022-07-31T03:10:49;8.50;;;5.50;;
6105;SDS011;3083;51.508;7.966;2022-07-31T03:13:16;10.30;;;6.30;;
6105;SDS011;3083;51.508;7.966;2022-07-31T03:15:45;11.27;;;6.03;;
6105;SDS011;3083;51.508;7.966;2022-07-31T03:18:13;8.80;;;6.00;;
6105;SDS011;3083;51.508;7.966;2022-07-31T03:20:42;12.20;;;6.40;;
6105;SDS011;3083;51.508;7.966;2022-07-31T03:23:15;12.93;;;6.60;;
6105;SDS011;3083;51.508;7.966;2022-07-31T03:25:45;8.90;;;6.27;;
6105;SDS011;3083;51.508;7.966;2022-07-31T03:28:16;9.57;;;6.20;;
6105;SDS011;3083;51.508;7.966;2022-07-31T03:30:44;11.70;;;6.97;;
6105;SDS011;3083;51.508;7.966;2022-07-31T03:33:11;9.70;;;6.47;;
6105;SDS011;3083;51.508;7.966;2022-07-31T03:35:38;9.03;;;6.37;;
6105;SDS011;3083;51.508;7.966;2022-07-31T03:38:05;9.63;;;6.10;;
6105;SDS011;3083;51.508;7.966;2022-07-31T03:40:32;13.90;;;6.60;;
6105;SDS011;3083;51.508;7.966;2022-07-31T03:43:00;8.00;;;5.80;;
6105;SDS011;3083;51.508;7.966;2022-07-31T03:45:30;8.43;;;6.00;;
6105;SDS011;3083;51.508;7.966;2022-07-31T03:47:57;9.27;;;6.67;;
6105;SDS011;3083;51.508;7.966;2022-07-31T03:50:25;9.73;;;6.20;;
6105;SDS011;3083;51.508;7.966;2022-07-31T03:52:52;8.30;;;6.40;;
6105;SDS011;3083;51.508;7.966;2022-07-31T03:55:21;7.93;;;5.57;;
6105;SDS011;3083;51.508;7.966;2022-07-31T03:57:48;8.03;;;5.60;;
6105;SDS011;3083;51.508;7.966;2022-07-31T04:00:15;10.50;;;5.83;;
6105;SDS011;3083;51.508;7.966;2022-07-31T04:02:45;12.73;;;6.50;;
6105;SDS011;3083;51.508;7.966;2022-07-31T04:05:12;7.60;;;5.53;;
6105;SDS011;3083;51.508;7.966;2022-07-31T04:07:39;9.63;;;5.80;;
6105;SDS011;3083;51.508;7.966;2022-07-31T04:10:07;11.10;;;5.07;;
6105;SDS011;3083;51.508;7.966;2022-07-31T04:12:34;9.10;;;5.77;;
6105;SDS011;3083;51.508;7.966;2022-07-31T04:15:02;8.30;;;5.50;;
6105;SDS011;3083;51.508;7.966;2022-07-31T04:17:29;8.33;;;5.90;;
6105;SDS011;3083;51.508;7.966;2022-07-31T04:19:58;8.37;;;5.60;;
6105;SDS011;3083;51.508;7.966;2022-07-31T04:22:25;8.80;;;5.77;;
6105;SDS011;3083;51.508;7.966;2022-07-31T04:24:52;9.37;;;5.90;;
6105;SDS011;3083;51.508;7.966;2022-07-31T04:27:18;10.00;;;5.37;;
6105;SDS011;3083;51.508;7.966;2022-07-31T04:29:45;8.70;;;5.90;;
6105;SDS011;3083;51.508;7.966;2022-07-31T04:32:13;8.37;;;5.30;;
6105;SDS011;3083;51.508;7.966;2022-07-31T04:34:40;8.00;;;5.10;;
6105;SDS011;3083;51.508;7.966;2022-07-31T04:37:09;9.00;;;6.17;;
6105;SDS011;3083;51.508;7.966;2022-07-31T04:39:36;8.20;;;5.70;;
6105;SDS011;3083;51.508;7.966;2022-07-31T04:42:03;10.13;;;5.70;;
6105;SDS011;3083;51.508;7.966;2022-07-31T04:44:31;7.70;;;5.53;;
6105;SDS011;3083;51.508;7.966;2022-07-31T04:46:58;7.57;;;6.13;;
6105;SDS011;3083;51.508;7.966;2022-07-31T04:49:25;8.73;;;5.80;;
6105;SDS011;3083;51.508;7.966;2022-07-31T04:51:52;7.10;;;5.10;;
6105;SDS011;3083;51.508;7.966;2022-07-31T04:54:21;8.70;;;5.37;;
6105;SDS011;3083;51.508;7.966;2022-07-31T04:56:49;10.93;;;5.47;;
6105;SDS011;3083;51.508;7.966;2022-07-31T04:59:16;7.57;;;5.17;;
6105;SDS011;3083;51.508;7.966;2022-07-31T05:01:45;8.83;;;5.30;;
6105;SDS011;3083;51.508;7.966;2022-07-31T05:04:13;8.50;;;4.90;;
6105;SDS011;3083;51.508;7.966;2022-07-31T05:06:42;7.27;;;4.93;;
6105;SDS011;3083;51.508;7.966;2022-07-31T05:09:11;6.73;;;5.43;;
6105;SDS011;3083;51.508;7.966;2022-07-31T05:11:41;12.23;;;5.10;;
6105;SDS011;3083;51.508;7.966;2022-07-31T05:14:09;7.10;;;5.17;;
6105;SDS011;3083;51.508;7.966;2022-07-31T05:16:37;11.80;;;5.50;;
6105;SDS011;3083;51.508;7.966;2022-07-31T05:19:05;7.47;;;5.47;;
6105;SDS011;3083;51.508;7.966;2022-07-31T05:21:32;8.93;;;5.20;;
6105;SDS011;3083;51.508;7.966;2022-07-31T05:23:59;10.63;;;5.50;;
6105;SDS011;3083;51.508;7.966;2022-07-31T05:26:27;11.33;;;5.77;;
6105;SDS011;3083;51.508;7.966;2022-07-31T05:28:57;11.57;;;5.13;;
6105;SDS011;3083;51.508;7.966;2022-07-31T05:31:26;6.50;;;4.70;;
6105;SDS011;3083;51.508;7.966;2022-07-31T05:33:53;7.57;;;5.10;;
6105;SDS011;3083;51.508;7.966;2022-07-31T05:36:20;7.00;;;5.13;;
6105;SDS011;3083;51.508;7.966;2022-07-31T05:38:47;7.47;;;5.07;;
6105;SDS011;3083;51.508;7.966;2022-07-31T05:41:14;7.50;;;4.63;;
6105;SDS011;3083;51.508;7.966;2022-07-31T05:43:41;8.50;;;5.53;;
6105;SDS011;3083;51.508;7.966;2022-07-31T05:46:09;11.93;;;5.43;;
6105;SDS011;3083;51.508;7.966;2022-07-31T05:48:40;10.50;;;5.37;;
6105;SDS011;3083;51.508;7.966;2022-07-31T05:51:08;7.53;;;4.90;;
6105;SDS011;3083;51.508;7.966;2022-07-31T05:53:36;7.57;;;4.70;;
6105;SDS011;3083;51.508;7.966;2022-07-31T05:56:03;6.03;;;4.30;;
6105;SDS011;3083;51.508;7.966;2022-07-31T05:58:31;8.10;;;5.03;;
6105;SDS011;3083;51.508;7.966;2022-07-31T06:00:59;8.77;;;5.07;;
6105;SDS011;3083;51.508;7.966;2022-07-31T06:03:28;7.00;;;5.10;;
6105;SDS011;3083;51.508;7.966;2022-07-31T06:05:59;6.00;;;4.77;;
6105;SDS011;3083;51.508;7.966;2022-07-31T06:08:27;8.93;;;4.83;;
6105;SDS011;3083;51.508;7.966;2022-07-31T06:10:54;7.07;;;4.97;;
6105;SDS011;3083;51.508;7.966;2022-07-31T06:13:22;8.07;;;5.00;;
6105;SDS011;3083;51.508;7.966;2022-07-31T06:15:50;7.80;;;5.30;;
6105;SDS011;3083;51.508;7.966;2022-07-31T06:18:17;7.47;;;4.80;;
6105;SDS011;3083;51.508;7.966;2022-07-31T06:20:47;7.83;;;5.50;;
6105;SDS011;3083;51.508;7.966;2022-07-31T06:23:14;7.20;;;5.30;;
6105;SDS011;3083;51.508;7.966;2022-07-31T06:25:41;7.50;;;5.50;;
6105;SDS011;3083;51.508;7.966;2022-07-31T06:28:08;9.43;;;5.70;;
6105;SDS011;3083;51.508;7.966;2022-07-31T06:30:35;10.43;;;5.73;;
6105;SDS011;3083;51.508;7.966;2022-07-31T06:33:02;7.40;;;4.93;;
6105;SDS011;3083;51.508;7.966;2022-07-31T06:35:29;6.40;;;5.10;;
6105;SDS011;3083;51.508;7.966;2022-07-31T06:37:57;7.90;;;5.13;;
6105;SDS011;3083;51.508;7.966;2022-07-31T06:40:24;8.33;;;5.30;;
6105;SDS011;3083;51.508;7.966;2022-07-31T06:42:51;6.03;;;4.70;;
6105;SDS011;3083;51.508;7.966;2022-07-31T06:45:18;7.33;;;5.30;;
6105;SDS011;3083;51.508;7.966;2022-07-31T06:47:46;7.70;;;5.10;;
6105;SDS011;3083;51.508;7.966;2022-07-31T06:50:13;8.10;;;4.90;;
6105;SDS011;3083;51.508;7.966;2022-07-31T06:52:41;6.77;;;5.13;;
6105;SDS011;3083;51.508;7.966;2022-07-31T06:55:09;8.03;;;5.40;;
6105;SDS011;3083;51.508;7.966;2022-07-31T06:57:36;7.33;;;5.10;;
6105;SDS011;3083;51.508;7.966;2022-07-31T07:00:04;7.70;;;4.77;;
6105;SDS011;3083;51.508;7.966;2022-07-31T07:02:33;7.60;;;4.87;;
6105;SDS011;3083;51.508;7.966;2022-07-31T07:05:00;7.63;;;4.80;;
6105;SDS011;3083;51.508;7.966;2022-07-31T07:07:27;7.80;;;5.20;;
6105;SDS011;3083;51.508;7.966;2022-07-31T07:09:54;10.27;;;5.70;;
6105;SDS011;3083;51.508;7.966;2022-07-31T07:12:22;11.80;;;4.50;;
6105;SDS011;3083;51.508;7.966;2022-07-31T07:14:49;7.90;;;5.07;;
6105;SDS011;3083;51.508;7.966;2022-07-31T07:17:16;9.70;;;5.37;;
6105;SDS011;3083;51.508;7.966;2022-07-31T07:19:43;6.80;;;4.97;;
6105;SDS011;3083;51.508;7.966;2022-07-31T07:22:10;8.47;;;5.00;;
6105;SDS011;3083;51.508;7.966;2022-07-31T07:24:38;5.53;;;4.33;;
6105;SDS011;3083;51.508;7.966;2022-07-31T07:27:05;10.37;;;5.50;;
6105;SDS011;3083;51.508;7.966;2022-07-31T07:29:34;6.07;;;4.80;;
6105;SDS011;3083;51.508;7.966;2022-07-31T07:32:02;5.63;;;4.60;;
6105;SDS011;3083;51.508;7.966;2022-07-31T07:34:29;8.83;;;4.80;;
6105;SDS011;3083;51.508;7.966;2022-07-31T07:36:56;8.50;;;4.43;;
6105;SDS011;3083;51.508;7.966;2022-07-31T07:39:23;6.63;;;4.67;;
6105;SDS011;3083;51.508;7.966;2022-07-31T07:41:51;5.87;;;4.30;;
6105;SDS011;3083;51.508;7.966;2022-07-31T07:44:18;7.27;;;4.77;;
6105;SDS011;3083;51.508;7.966;2022-07-31T07:46:46;6.97;;;4.27;;
6105;SDS011;3083;51.508;7.966;2022-07-31T07:49:13;8.47;;;4.50;;
6105;SDS011;3083;51.508;7.966;2022-07-31T07:51:40;6.63;;;4.20;;
6105;SDS011;3083;51.508;7.966;2022-07-31T07:54:07;7.93;;;4.57;;
6105;SDS011;3083;51.508;7.966;2022-07-31T07:56:34;8.57;;;4.40;;
6105;SDS011;3083;51.508;7.966;2022-07-31T07:59:01;6.23;;;4.30;;
6105;SDS011;3083;51.508;7.966;2022-07-31T08:01:28;6.70;;;4.10;;
6105;SDS011;3083;51.508;7.966;2022-07-31T08:03:57;5.90;;;4.20;;
6105;SDS011;3083;51.508;7.966;2022-07-31T08:06:24;7.20;;;4.10;;
6105;SDS011;3083;51.508;7.966;2022-07-31T08:08:51;5.30;;;4.30;;
6105;SDS011;3083;51.508;7.966;2022-07-31T08:11:18;8.10;;;3.93;;
6105;SDS011;3083;51.508;7.966;2022-07-31T08:13:45;10.37;;;4.53;;
6105;SDS011;3083;51.508;7.966;2022-07-31T08:16:12;9.80;;;4.63;;
6105;SDS011;3083;51.508;7.966;2022-07-31T08:18:39;6.40;;;4.40;;
6105;SDS011;3083;51.508;7.966;2022-07-31T08:21:07;8.40;;;4.30;;
6105;SDS011;3083;51.508;7.966;2022-07-31T08:23:34;7.80;;;4.70;;
6105;SDS011;3083;51.508;7.966;2022-07-31T08:26:01;8.23;;;4.43;;
6105;SDS011;3083;51.508;7.966;2022-07-31T08:28:32;7.90;;;5.35;;
6105;SDS011;3083;51.508;7.966;2022-07-31T08:31:00;8.07;;;4.70;;
6105;SDS011;3083;51.508;7.966;2022-07-31T08:33:27;7.87;;;4.13;;
6105;SDS011;3083;51.508;7.966;2022-07-31T08:35:54;6.00;;;3.77;;
6105;SDS011;3083;51.508;7.966;2022-07-31T08:38:22;7.07;;;3.90;;
6105;SDS011;3083;51.508;7.966;2022-07-31T08:40:49;5.70;;;3.93;;
6105;SDS011;3083;51.508;7.966;2022-07-31T08:43:17;6.90;;;4.50;;
6105;SDS011;3083;51.508;7.966;2022-07-31T08:45:44;6.93;;;4.00;;
6105;SDS011;3083;51.508;7.966;2022-07-31T08:48:13;5.40;;;3.70;;
6105;SDS011;3083;51.508;7.966;2022-07-31T08:50:42;7.80;;;4.20;;
6105;SDS011;3083;51.508;7.966;2022-07-31T08:53:10;6.30;;;4.10;;
6105;SDS011;3083;51.508;7.966;2022-07-31T08:55:42;6.60;;;4.67;;
6105;SDS011;3083;51.508;7.966;2022-07-31T08:58:10;6.70;;;3.87;;
6105;SDS011;3083;51.508;7.966;2022-07-31T09:00:39;5.20;;;3.90;;
6105;SDS011;3083;51.508;7.966;2022-07-31T09:03:07;5.57;;;3.60;;
6105;SDS011;3083;51.508;7.966;2022-07-31T09:05:34;5.20;;;3.90;;
6105;SDS011;3083;51.508;7.966;2022-07-31T09:08:03;6.93;;;3.90;;
6105;SDS011;3083;51.508;7.966;2022-07-31T09:10:30;5.17;;;3.33;;
6105;SDS011;3083;51.508;7.966;2022-07-31T09:12:58;5.10;;;3.50;;
6105;SDS011;3083;51.508;7.966;2022-07-31T09:15:27;6.33;;;3.30;;
6105;SDS011;3083;51.508;7.966;2022-07-31T09:17:55;5.90;;;3.30;;
6105;SDS011;3083;51.508;7.966;2022-07-31T09:20:23;7.00;;;3.40;;
6105;SDS011;3083;51.508;7.966;2022-07-31T09:22:51;10.73;;;3.53;;
6105;SDS011;3083;51.508;7.966;2022-07-31T09:25:29;5.60;;;3.53;;
6105;SDS011;3083;51.508;7.966;2022-07-31T09:28:01;4.90;;;3.47;;
6105;SDS011;3083;51.508;7.966;2022-07-31T09:30:29;5.07;;;3.10;;
6105;SDS011;3083;51.508;7.966;2022-07-31T09:33:10;5.10;;;3.30;;
6105;SDS011;3083;51.508;7.966;2022-07-31T09:35:45;5.73;;;3.73;;
6105;SDS011;3083;51.508;7.966;2022-07-31T09:38:13;4.80;;;3.30;;
6105;SDS011;3083;51.508;7.966;2022-07-31T09:40:40;6.30;;;3.60;;
6105;SDS011;3083;51.508;7.966;2022-07-31T09:43:14;5.07;;;3.47;;
6105;SDS011;3083;51.508;7.966;2022-07-31T09:45:43;5.67;;;3.70;;
6105;SDS011;3083;51.508;7.966;2022-07-31T09:48:11;6.77;;;3.53;;
6105;SDS011;3083;51.508;7.966;2022-07-31T09:50:38;5.27;;;3.47;;
6105;SDS011;3083;51.508;7.966;2022-07-31T09:53:06;8.77;;;3.60;;
6105;SDS011;3083;51.508;7.966;2022-07-31T09:55:34;5.27;;;3.20;;
6105;SDS011;3083;51.508;7.966;2022-07-31T09:58:01;11.73;;;3.87;;
6105;SDS011;3083;51.508;7.966;2022-07-31T10:00:29;7.80;;;3.80;;
6105;SDS011;3083;51.508;7.966;2022-07-31T10:02:57;5.40;;;3.60;;
6105;SDS011;3083;51.508;7.966;2022-07-31T10:05:25;5.43;;;3.60;;
6105;SDS011;3083;51.508;7.966;2022-07-31T10:07:53;5.23;;;3.73;;
6105;SDS011;3083;51.508;7.966;2022-07-31T10:10:25;6.37;;;3.73;;
6105;SDS011;3083;51.508;7.966;2022-07-31T10:12:54;4.90;;;3.37;;
6105;SDS011;3083;51.508;7.966;2022-07-31T10:15:25;4.17;;;2.93;;
6105;SDS011;3083;51.508;7.966;2022-07-31T10:17:54;5.83;;;3.30;;
6105;SDS011;3083;51.508;7.966;2022-07-31T10:20:22;5.23;;;2.97;;
6105;SDS011;3083;51.508;7.966;2022-07-31T10:22:52;8.13;;;3.50;;
6105;SDS011;3083;51.508;7.966;2022-07-31T10:25:23;5.20;;;3.00;;
6105;SDS011;3083;51.508;7.966;2022-07-31T10:27:51;5.13;;;2.93;;
6105;SDS011;3083;51.508;7.966;2022-07-31T10:30:18;5.00;;;3.27;;
6105;SDS011;3083;51.508;7.966;2022-07-31T10:32:46;5.20;;;3.00;;
6105;SDS011;3083;51.508;7.966;2022-07-31T10:35:15;5.20;;;3.60;;
6105;SDS011;3083;51.508;7.966;2022-07-31T10:37:44;5.70;;;3.57;;
6105;SDS011;3083;51.508;7.966;2022-07-31T10:40:22;4.83;;;3.30;;
6105;SDS011;3083;51.508;7.966;2022-07-31T10:42:56;5.50;;;3.60;;
6105;SDS011;3083;51.508;7.966;2022-07-31T10:45:44;5.50;;;3.20;;
6105;SDS011;3083;51.508;7.966;2022-07-31T10:48:11;8.00;;;3.37;;
6105;SDS011;3083;51.508;7.966;2022-07-31T10:50:39;6.97;;;3.30;;
6105;SDS011;3083;51.508;7.966;2022-07-31T10:53:07;6.20;;;3.37;;
6105;SDS011;3083;51.508;7.966;2022-07-31T10:55:35;6.00;;;3.90;;
6105;SDS011;3083;51.508;7.966;2022-07-31T10:58:06;5.43;;;3.10;;
6105;SDS011;3083;51.508;7.966;2022-07-31T11:00:35;4.97;;;3.50;;
6105;SDS011;3083;51.508;7.966;2022-07-31T11:03:12;5.07;;;3.43;;
6105;SDS011;3083;51.508;7.966;2022-07-31T11:05:52;4.40;;;2.90;;
6105;SDS011;3083;51.508;7.966;2022-07-31T11:08:20;4.70;;;3.00;;
6105;SDS011;3083;51.508;7.966;2022-07-31T11:10:48;4.60;;;3.07;;
6105;SDS011;3083;51.508;7.966;2022-07-31T11:13:16;4.40;;;3.30;;
6105;SDS011;3083;51.508;7.966;2022-07-31T11:15:43;6.13;;;3.50;;
6105;SDS011;3083;51.508;7.966;2022-07-31T11:18:10;5.47;;;3.00;;
6105;SDS011;3083;51.508;7.966;2022-07-31T11:20:38;4.93;;;3.50;;
6105;SDS011;3083;51.508;7.966;2022-07-31T11:23:07;9.37;;;3.73;;
6105;SDS011;3083;51.508;7.966;2022-07-31T11:25:35;5.73;;;3.00;;
6105;SDS011;3083;51.508;7.966;2022-07-31T11:28:09;7.17;;;3.37;;
6105;SDS011;3083;51.508;7.966;2022-07-31T11:30:47;4.80;;;3.13;;
6105;SDS011;3083;51.508;7.966;2022-07-31T11:33:26;4.33;;;3.17;;
6105;SDS011;3083;51.508;7.966;2022-07-31T11:36:10;5.87;;;3.50;;
6105;SDS011;3083;51.508;7.966;2022-07-31T11:38:40;5.47;;;3.20;;
6105;SDS011;3083;51.508;7.966;2022-07-31T11:41:09;4.80;;;3.13;;
6105;SDS011;3083;51.508;7.966;2022-07-31T11:43:41;4.87;;;3.30;;
6105;SDS011;3083;51.508;7.966;2022-07-31T11:46:09;7.60;;;3.00;;
6105;SDS011;3083;51.508;7.966;2022-07-31T11:48:37;8.63;;;3.27;;
6105;SDS011;3083;51.508;7.966;2022-07-31T11:51:04;5.43;;;3.53;;
6105;SDS011;3083;51.508;7.966;2022-07-31T11:53:38;6.23;;;3.50;;
6105;SDS011;3083;51.508;7.966;2022-07-31T11:56:07;5.10;;;3.10;;
6105;SDS011;3083;51.508;7.966;2022-07-31T11:58:33;4.53;;;3.30;;
6105;SDS011;3083;51.508;7.966;2022-07-31T12:01:02;5.80;;;3.17;;
6105;SDS011;3083;51.508;7.966;2022-07-31T12:03:31;5.43;;;3.00;;
6105;SDS011;3083;51.508;7.966;2022-07-31T12:05:59;6.73;;;3.17;;
6105;SDS011;3083;51.508;7.966;2022-07-31T12:08:26;6.40;;;3.10;;
6105;SDS011;3083;51.508;7.966;2022-07-31T12:10:54;5.67;;;3.33;;
6105;SDS011;3083;51.508;7.966;2022-07-31T12:13:25;5.90;;;4.63;;
6105;SDS011;3083;51.508;7.966;2022-07-31T12:15:53;6.00;;;3.40;;
6105;SDS011;3083;51.508;7.966;2022-07-31T12:18:21;6.27;;;3.60;;
6105;SDS011;3083;51.508;7.966;2022-07-31T12:20:53;8.03;;;3.17;;
6105;SDS011;3083;51.508;7.966;2022-07-31T12:23:21;6.30;;;3.27;;
6105;SDS011;3083;51.508;7.966;2022-07-31T12:25:51;6.30;;;3.67;;
6105;SDS011;3083;51.508;7.966;2022-07-31T12:28:18;4.87;;;3.50;;
6105;SDS011;3083;51.508;7.966;2022-07-31T12:30:55;4.27;;;3.33;;
6105;SDS011;3083;51.508;7.966;2022-07-31T12:33:23;5.00;;;3.80;;
6105;SDS011;3083;51.508;7.966;2022-07-31T12:35:51;5.70;;;3.50;;
6105;SDS011;3083;51.508;7.966;2022-07-31T12:38:22;5.53;;;3.83;;
6105;SDS011;3083;51.508;7.966;2022-07-31T12:41:00;8.20;;;4.23;;
6105;SDS011;3083;51.508;7.966;2022-07-31T12:43:28;5.90;;;4.20;;
6105;SDS011;3083;51.508;7.966;2022-07-31T12:45:56;7.33;;;4.20;;
6105;SDS011;3083;51.508;7.966;2022-07-31T12:48:29;6.63;;;4.60;;
6105;SDS011;3083;51.508;7.966;2022-07-31T12:50:56;5.23;;;3.93;;
6105;SDS011;3083;51.508;7.966;2022-07-31T12:53:23;10.43;;;4.07;;
6105;SDS011;3083;51.508;7.966;2022-07-31T12:55:52;5.20;;;3.83;;
6105;SDS011;3083;51.508;7.966;2022-07-31T12:58:19;8.13;;;4.10;;
6105;SDS011;3083;51.508;7.966;2022-07-31T13:00:46;6.03;;;3.80;;
6105;SDS011;3083;51.508;7.966;2022-07-31T13:03:14;7.13;;;4.20;;
6105;SDS011;3083;51.508;7.966;2022-07-31T13:05:41;5.50;;;4.20;;
6105;SDS011;3083;51.508;7.966;2022-07-31T13:08:08;8.40;;;4.70;;
6105;SDS011;3083;51.508;7.966;2022-07-31T13:10:37;7.57;;;4.80;;
6105;SDS011;3083;51.508;7.966;2022-07-31T13:13:04;5.10;;;3.93;;
6105;SDS011;3083;51.508;7.966;2022-07-31T13:15:31;7.27;;;4.00;;
6105;SDS011;3083;51.508;7.966;2022-07-31T13:17:58;6.93;;;3.70;;
6105;SDS011;3083;51.508;7.966;2022-07-31T13:20:28;7.47;;;4.20;;
6105;SDS011;3083;51.508;7.966;2022-07-31T13:22:56;8.70;;;5.00;;
6105;SDS011;3083;51.508;7.966;2022-07-31T13:25:25;8.83;;;5.43;;
6105;SDS011;3083;51.508;7.966;2022-07-31T13:27:54;5.90;;;4.27;;
6105;SDS011;3083;51.508;7.966;2022-07-31T13:30:21;7.40;;;4.90;;
6105;SDS011;3083;51.508;7.966;2022-07-31T13:32:48;7.43;;;4.70;;
6105;SDS011;3083;51.508;7.966;2022-07-31T13:35:15;7.50;;;4.60;;
6105;SDS011;3083;51.508;7.966;2022-07-31T13:37:45;6.93;;;4.47;;
6105;SDS011;3083;51.508;7.966;2022-07-31T13:40:13;5.10;;;4.20;;
6105;SDS011;3083;51.508;7.966;2022-07-31T13:42:40;7.97;;;4.13;;
6105;SDS011;3083;51.508;7.966;2022-07-31T13:45:07;7.20;;;4.30;;
6105;SDS011;3083;51.508;7.966;2022-07-31T13:47:35;7.10;;;4.70;;
6105;SDS011;3083;51.508;7.966;2022-07-31T13:50:02;6.00;;;4.50;;
6105;SDS011;3083;51.508;7.966;2022-07-31T13:52:29;5.77;;;4.10;;
6105;SDS011;3083;51.508;7.966;2022-07-31T13:54:58;5.30;;;4.03;;
6105;SDS011;3083;51.508;7.966;2022-07-31T13:57:25;5.53;;;4.00;;
6105;SDS011;3083;51.508;7.966;2022-07-31T13:59:52;5.27;;;4.30;;
6105;SDS011;3083;51.508;7.966;2022-07-31T14:02:19;5.50;;;4.20;;
6105;SDS011;3083;51.508;7.966;2022-07-31T14:04:46;7.27;;;4.20;;
6105;SDS011;3083;51.508;7.966;2022-07-31T14:07:13;5.27;;;4.27;;
6105;SDS011;3083;51.508;7.966;2022-07-31T14:09:39;5.33;;;3.70;;
6105;SDS011;3083;51.508;7.966;2022-07-31T14:12:08;6.87;;;4.43;;
6105;SDS011;3083;51.508;7.966;2022-07-31T14:14:35;6.50;;;4.53;;
6105;SDS011;3083;51.508;7.966;2022-07-31T14:17:02;5.23;;;4.00;;
6105;SDS011;3083;51.508;7.966;2022-07-31T14:19:29;5.30;;;3.93;;
6105;SDS011;3083;51.508;7.966;2022-07-31T14:21:56;8.33;;;4.30;;
6105;SDS011;3083;51.508;7.966;2022-07-31T14:24:23;5.37;;;4.30;;
6105;SDS011;3083;51.508;7.966;2022-07-31T14:26:51;5.17;;;4.17;;
6105;SDS011;3083;51.508;7.966;2022-07-31T14:29:19;7.13;;;4.10;;
6105;SDS011;3083;51.508;7.966;2022-07-31T14:31:46;5.43;;;4.03;;
6105;SDS011;3083;51.508;7.966;2022-07-31T14:34:13;6.60;;;4.10;;
6105;SDS011;3083;51.508;7.966;2022-07-31T14:36:40;13.17;;;4.73;;
6105;SDS011;3083;51.508;7.966;2022-07-31T14:39:07;5.50;;;4.27;;
6105;SDS011;3083;51.508;7.966;2022-07-31T14:41:33;5.43;;;4.27;;
6105;SDS011;3083;51.508;7.966;2022-07-31T14:44:00;7.07;;;4.30;;
6105;SDS011;3083;51.508;7.966;2022-07-31T14:46:29;7.63;;;4.50;;
6105;SDS011;3083;51.508;7.966;2022-07-31T14:48:56;5.37;;;4.20;;
6105;SDS011;3083;51.508;7.966;2022-07-31T14:51:23;7.13;;;4.77;;
6105;SDS011;3083;51.508;7.966;2022-07-31T14:53:50;7.93;;;4.60;;
6105;SDS011;3083;51.508;7.966;2022-07-31T14:56:17;7.07;;;4.13;;
6105;SDS011;3083;51.508;7.966;2022-07-31T14:58:44;6.80;;;4.50;;
6105;SDS011;3083;51.508;7.966;2022-07-31T15:01:11;5.63;;;4.53;;
6105;SDS011;3083;51.508;7.966;2022-07-31T15:03:41;5.40;;;4.23;;
6105;SDS011;3083;51.508;7.966;2022-07-31T15:06:08;6.20;;;5.03;;
6105;SDS011;3083;51.508;7.966;2022-07-31T15:08:35;7.00;;;4.83;;
6105;SDS011;3083;51.508;7.966;2022-07-31T15:11:03;6.13;;;4.13;;
6105;SDS011;3083;51.508;7.966;2022-07-31T15:13:30;7.50;;;4.40;;
6105;SDS011;3083;51.508;7.966;2022-07-31T15:15:57;4.90;;;4.17;;
6105;SDS011;3083;51.508;7.966;2022-07-31T15:18:24;7.47;;;4.23;;
6105;SDS011;3083;51.508;7.966;2022-07-31T15:20:52;11.00;;;4.63;;
6105;SDS011;3083;51.508;7.966;2022-07-31T15:23:19;8.17;;;4.40;;